createdAt,value
2022-09-26T00:01:42.848Z,92.20
2022-09-26T00:04:24.648Z,92.20
2022-09-26T00:06:55.483Z,91.80
2022-09-26T00:09:24.860Z,92.30
2022-09-26T00:11:52.720Z,91.80
2022-09-26T00:14:24.317Z,92.10
2022-09-26T00:16:54.466Z,91.70
2022-09-26T00:19:22.754Z,91.30
2022-09-26T00:21:50.081Z,91.70
2022-09-26T00:24:21.086Z,91.70
2022-09-26T00:26:48.495Z,91.70
2022-09-26T00:29:15.957Z,91.70
2022-09-26T00:31:49.113Z,91.70
2022-09-26T00:34:19.346Z,91.60
2022-09-26T00:36:46.802Z,91.60
2022-09-26T00:39:15.877Z,91.70
2022-09-26T00:41:44.132Z,92.00
2022-09-26T00:44:42.796Z,91.90
2022-09-26T00:47:38.419Z,91.50
2022-09-26T00:50:16.729Z,91.60
2022-09-26T00:52:54.382Z,91.70
2022-09-26T00:55:25.583Z,91.70
2022-09-26T00:58:04.526Z,91.90
2022-09-26T01:00:31.917Z,91.70
2022-09-26T01:03:00.598Z,91.90
2022-09-26T01:05:28.572Z,91.90
2022-09-26T01:07:57.147Z,91.90
2022-09-26T01:10:27.728Z,91.90
2022-09-26T01:12:57.050Z,91.90
2022-09-26T01:15:24.414Z,92.00
2022-09-26T01:17:54.210Z,92.10
2022-09-26T01:20:21.590Z,92.00
2022-09-26T01:23:10.941Z,92.00
2022-09-26T01:25:50.077Z,91.50
2022-09-26T01:28:42.737Z,91.80
2022-09-26T01:31:38.604Z,91.60
2022-09-26T01:34:11.423Z,91.40
2022-09-26T01:36:53.832Z,91.70
2022-09-26T01:39:41.587Z,91.60
2022-09-26T01:42:29.126Z,91.60
2022-09-26T01:45:18.996Z,91.50
2022-09-26T01:47:55.690Z,91.60
2022-09-26T01:50:42.769Z,91.70
2022-09-26T01:53:12.653Z,91.50
2022-09-26T01:55:48.075Z,91.70
2022-09-26T01:58:18.976Z,91.60
2022-09-26T02:00:48.082Z,91.60
2022-09-26T02:03:21.695Z,91.70
2022-09-26T02:06:04.028Z,91.80
2022-09-26T02:08:33.798Z,91.70
2022-09-26T02:11:06.236Z,91.80
2022-09-26T02:13:51.913Z,91.90
2022-09-26T02:16:25.128Z,91.80
2022-09-26T02:19:05.973Z,91.80
2022-09-26T02:21:33.380Z,91.70
2022-09-26T02:24:03.924Z,91.90
2022-09-26T02:26:31.337Z,91.90
2022-09-26T02:29:03.759Z,91.90
2022-09-26T02:31:36.538Z,91.90
2022-09-26T02:34:04.761Z,91.90
2022-09-26T02:36:33.699Z,91.90
2022-09-26T02:39:01.881Z,92.00
2022-09-26T02:41:50.674Z,92.00
2022-09-26T02:45:12.718Z,91.70
2022-09-26T02:48:03.925Z,91.70
2022-09-26T02:51:16.873Z,91.70
2022-09-26T02:54:21.393Z,91.60
2022-09-26T02:57:16.226Z,91.30
2022-09-26T03:00:02.073Z,91.50
2022-09-26T03:02:37.255Z,91.40
2022-09-26T03:05:12.694Z,91.70
2022-09-26T03:08:12.223Z,91.50
2022-09-26T03:10:41.666Z,91.50
2022-09-26T03:13:13.330Z,91.70
2022-09-26T03:15:41.855Z,91.60
2022-09-26T03:18:14.610Z,91.20
2022-09-26T03:20:42.039Z,91.50
2022-09-26T03:23:09.873Z,91.60
2022-09-26T03:25:41.892Z,91.60
2022-09-26T03:28:12.329Z,91.50
2022-09-26T03:30:39.900Z,91.60
2022-09-26T03:33:09.335Z,91.50
2022-09-26T03:35:36.655Z,91.60
2022-09-26T03:38:03.981Z,91.60
2022-09-26T03:40:31.397Z,91.60
2022-09-26T03:42:58.677Z,91.60
2022-09-26T03:45:28.730Z,91.60
2022-09-26T03:47:57.538Z,91.70
2022-09-26T03:50:25.125Z,91.70
2022-09-26T03:52:52.661Z,91.70
2022-09-26T03:55:20.006Z,91.70
2022-09-26T03:57:47.324Z,91.80
2022-09-26T04:00:14.785Z,91.80
2022-09-26T04:02:42.133Z,92.10
2022-09-26T04:05:12.035Z,91.80
2022-09-26T04:07:39.388Z,91.90
2022-09-26T04:10:07.353Z,92.00
2022-09-26T04:12:34.838Z,92.00
2022-09-26T04:15:02.480Z,92.00
2022-09-26T04:17:29.780Z,91.90
2022-09-26T04:19:57.189Z,91.90
2022-09-26T04:22:27.408Z,91.80
2022-09-26T04:24:55.228Z,91.70
2022-09-26T04:27:26.132Z,91.80
2022-09-26T04:29:57.172Z,91.70
2022-09-26T04:32:24.962Z,91.70
2022-09-26T04:34:52.224Z,91.70
2022-09-26T04:37:25.454Z,92.00
2022-09-26T04:39:52.721Z,91.70
2022-09-26T04:42:24.433Z,91.60
2022-09-26T04:44:51.744Z,91.60
2022-09-26T04:47:19.139Z,91.60
2022-09-26T04:49:46.836Z,91.60
2022-09-26T04:52:14.143Z,91.60
2022-09-26T04:54:41.453Z,91.50
2022-09-26T04:57:13.010Z,91.40
2022-09-26T04:59:43.436Z,91.40
2022-09-26T05:02:10.940Z,91.30
2022-09-26T05:04:40.487Z,91.30
2022-09-26T05:07:07.833Z,91.30
2022-09-26T05:09:36.282Z,91.50
2022-09-26T05:12:03.957Z,91.50
2022-09-26T05:14:31.236Z,91.50
2022-09-26T05:16:58.505Z,91.50
2022-09-26T05:19:26.834Z,91.50
2022-09-26T05:21:54.442Z,91.60
2022-09-26T05:24:40.536Z,91.50
2022-09-26T05:27:08.156Z,91.50
2022-09-26T05:29:37.926Z,91.60
2022-09-26T05:32:05.353Z,91.60
2022-09-26T05:34:34.907Z,91.70
2022-09-26T05:37:02.336Z,91.50
2022-09-26T05:39:48.147Z,91.50
2022-09-26T05:42:15.488Z,91.70
2022-09-26T05:44:42.867Z,91.70
2022-09-26T05:47:13.328Z,91.70
2022-09-26T05:49:40.736Z,91.70
2022-09-26T05:52:08.066Z,91.80
2022-09-26T05:54:35.386Z,91.70
2022-09-26T05:57:04.776Z,91.80
2022-09-26T05:59:32.074Z,91.90
2022-09-26T06:02:01.789Z,91.90
2022-09-26T06:04:29.601Z,91.90
2022-09-26T06:06:56.983Z,91.90
2022-09-26T06:09:28.944Z,91.90
2022-09-26T06:11:59.624Z,91.90
2022-09-26T06:14:29.709Z,91.90
2022-09-26T06:16:57.020Z,91.80
2022-09-26T06:19:26.630Z,91.80
2022-09-26T06:21:56.696Z,91.80
2022-09-26T06:24:24.087Z,91.90
2022-09-26T06:26:55.348Z,92.00
2022-09-26T06:29:25.196Z,92.00
2022-09-26T06:31:54.791Z,92.00
2022-09-26T06:34:26.121Z,92.10
2022-09-26T06:37:01.156Z,92.00
2022-09-26T06:39:37.032Z,92.00
2022-09-26T06:42:08.557Z,92.00
2022-09-26T06:44:38.292Z,91.80
2022-09-26T06:47:09.092Z,91.80
2022-09-26T06:49:38.843Z,91.90
2022-09-26T06:52:06.187Z,92.00
2022-09-26T06:54:33.487Z,92.10
2022-09-26T06:57:02.891Z,92.00
2022-09-26T06:59:30.285Z,92.00
2022-09-26T07:02:00.371Z,91.90
2022-09-26T07:04:28.196Z,91.80
2022-09-26T07:06:58.337Z,91.80
2022-09-26T07:09:25.938Z,91.80
2022-09-26T07:12:14.165Z,92.00
2022-09-26T07:14:50.129Z,92.10
2022-09-26T07:17:20.869Z,92.30
2022-09-26T07:19:52.903Z,92.30
2022-09-26T07:22:22.406Z,92.20
2022-09-26T07:24:50.736Z,92.50
2022-09-26T07:27:18.450Z,92.50
2022-09-26T07:29:47.402Z,92.20
2022-09-26T07:32:17.219Z,91.80
2022-09-26T07:34:49.293Z,91.70
2022-09-26T07:37:17.339Z,91.70
2022-09-26T07:39:44.718Z,91.60
2022-09-26T07:42:12.341Z,91.80
2022-09-26T07:45:20.593Z,92.00
2022-09-26T07:47:46.457Z,92.20
2022-09-26T07:50:16.699Z,92.30
2022-09-26T07:52:48.556Z,92.30
2022-09-26T07:55:21.661Z,92.40
2022-09-26T07:57:50.129Z,92.30
2022-09-26T08:00:21.345Z,92.60
2022-09-26T08:02:48.778Z,92.60
2022-09-26T08:05:20.023Z,92.60
2022-09-26T08:07:50.730Z,92.50
2022-09-26T08:10:23.436Z,92.40
2022-09-26T08:12:53.541Z,92.20
2022-09-26T08:15:20.880Z,92.30
2022-09-26T08:17:48.194Z,92.40
2022-09-26T08:20:15.593Z,92.60
2022-09-26T08:22:43.288Z,92.70
2022-09-26T08:25:10.605Z,92.70
2022-09-26T08:27:40.334Z,92.70
2022-09-26T08:30:08.440Z,92.80
2022-09-26T08:32:37.240Z,93.00
2022-09-26T08:35:05.112Z,92.70
2022-09-26T08:37:32.826Z,92.90
2022-09-26T08:40:00.951Z,93.00
2022-09-26T08:42:42.793Z,93.40
2022-09-26T08:45:54.621Z,93.70
2022-09-26T08:48:33.349Z,92.90
2022-09-26T08:51:30.153Z,93.40
2022-09-26T08:54:16.662Z,93.00
2022-09-26T08:57:06.830Z,92.90
2022-09-26T08:59:46.030Z,92.70
2022-09-26T09:02:41.982Z,92.70
2022-09-26T09:05:28.700Z,92.20
2022-09-26T09:08:03.619Z,92.40
2022-09-26T09:10:47.698Z,92.30
2022-09-26T09:13:31.656Z,91.60
2022-09-26T09:16:23.414Z,91.80
2022-09-26T09:19:15.693Z,91.90
2022-09-26T09:22:34.208Z,91.70
2022-09-26T09:25:17.452Z,91.20
2022-09-26T09:28:07.226Z,90.90
2022-09-26T09:30:45.260Z,90.90
2022-09-26T09:33:35.851Z,91.40
2022-09-26T09:36:18.579Z,91.30
2022-09-26T09:38:48.599Z,91.40
2022-09-26T09:41:25.146Z,92.40
2022-09-26T09:44:03.699Z,92.50
2022-09-26T09:46:43.234Z,92.60
2022-09-26T09:49:10.640Z,92.60
2022-09-26T09:51:48.072Z,93.00
2022-09-26T09:54:41.893Z,92.90
2022-09-26T09:57:26.150Z,92.60
2022-09-26T10:00:07.093Z,92.30
2022-09-26T10:02:47.407Z,91.80
2022-09-26T10:05:17.567Z,92.00
2022-09-26T10:07:49.838Z,92.40
2022-09-26T10:10:21.960Z,92.40
2022-09-26T10:12:52.060Z,92.00
2022-09-26T10:15:26.415Z,92.20
2022-09-26T10:18:22.814Z,91.40
2022-09-26T10:20:59.836Z,91.20
2022-09-26T10:23:35.716Z,91.30
2022-09-26T10:26:09.393Z,91.30
2022-09-26T10:28:45.010Z,91.40
2022-09-26T10:31:31.302Z,90.70
2022-09-26T10:34:03.154Z,90.10
2022-09-26T10:36:36.706Z,90.70
2022-09-26T10:39:44.316Z,90.20
2022-09-26T10:42:20.731Z,88.40
2022-09-26T10:44:49.390Z,90.70
2022-09-26T10:47:29.981Z,90.20
2022-09-26T10:50:28.155Z,87.70
2022-09-26T10:53:02.800Z,87.30
2022-09-26T10:56:00.462Z,86.40
2022-09-26T10:58:32.587Z,85.60
2022-09-26T11:01:01.266Z,87.30
2022-09-26T11:03:46.248Z,86.10
2022-09-26T11:06:49.793Z,85.30
2022-09-26T11:09:23.644Z,86.20
2022-09-26T11:11:52.665Z,85.40
2022-09-26T11:14:32.729Z,84.60
2022-09-26T11:17:00.805Z,82.90
2022-09-26T11:19:48.990Z,87.20
2022-09-26T11:22:23.810Z,83.00
2022-09-26T11:25:09.822Z,85.40
2022-09-26T11:27:46.881Z,85.00
2022-09-26T11:30:22.613Z,85.80
2022-09-26T11:32:54.119Z,84.70
2022-09-26T11:35:21.310Z,87.80
2022-09-26T11:38:28.074Z,86.10
2022-09-26T11:41:36.834Z,81.80
2022-09-26T11:44:27.025Z,74.40
2022-09-26T11:47:23.307Z,77.40
2022-09-26T11:50:28.588Z,75.10
2022-09-26T11:53:03.505Z,73.80
2022-09-26T11:55:54.347Z,75.80
2022-09-26T11:58:38.368Z,78.40
2022-09-26T12:01:29.278Z,73.60
2022-09-26T12:04:29.856Z,74.20
2022-09-26T12:07:16.495Z,74.30
2022-09-26T12:10:04.837Z,77.40
2022-09-26T12:12:43.416Z,78.40
2022-09-26T12:15:31.630Z,73.30
2022-09-26T12:18:16.758Z,70.20
2022-09-26T12:21:13.729Z,69.10
2022-09-26T12:23:53.726Z,67.60
2022-09-26T12:26:46.612Z,63.30
2022-09-26T12:29:28.248Z,65.20
2022-09-26T12:32:07.619Z,64.30
2022-09-26T12:35:28.265Z,66.00
2022-09-26T12:38:36.892Z,67.80
2022-09-26T12:42:03.644Z,67.70
2022-09-26T12:44:59.845Z,68.60
2022-09-26T12:48:12.449Z,69.60
2022-09-26T12:51:10.408Z,69.60
2022-09-26T12:53:54.910Z,71.20
2022-09-26T12:56:43.931Z,71.00
2022-09-26T12:59:38.523Z,70.00
2022-09-26T13:02:17.555Z,73.80
2022-09-26T13:05:09.090Z,76.00
2022-09-26T13:07:43.898Z,75.10
2022-09-26T13:10:24.641Z,79.20
2022-09-26T13:13:23.226Z,71.60
2022-09-26T13:16:02.380Z,68.70
2022-09-26T13:18:46.354Z,65.30
2022-09-26T13:21:19.679Z,64.70
2022-09-26T13:24:04.186Z,60.30
2022-09-26T13:26:37.726Z,57.20
2022-09-26T13:29:20.853Z,59.70
2022-09-26T13:32:29.719Z,61.70
2022-09-26T13:35:24.441Z,61.50
2022-09-26T13:38:15.548Z,64.10
2022-09-26T13:41:12.253Z,63.10
2022-09-26T13:44:04.670Z,62.50
2022-09-26T13:46:52.496Z,63.50
2022-09-26T13:49:35.199Z,65.50
2022-09-26T13:52:29.528Z,66.40
2022-09-26T13:55:02.330Z,65.50
2022-09-26T13:57:36.959Z,67.00
2022-09-26T14:00:30.263Z,67.90
2022-09-26T14:03:13.794Z,66.30
2022-09-26T14:05:47.037Z,67.00
2022-09-26T14:09:29.317Z,68.60
2022-09-26T14:12:22.564Z,68.50
2022-09-26T14:15:16.231Z,70.00
2022-09-26T14:17:52.009Z,69.90
2022-09-26T14:20:28.220Z,71.50
2022-09-26T14:22:58.757Z,69.50
2022-09-26T14:25:50.747Z,68.90
2022-09-26T14:28:39.928Z,67.90
2022-09-26T14:31:27.913Z,68.00
2022-09-26T14:34:23.505Z,69.10
2022-09-26T14:36:53.726Z,69.50
2022-09-26T14:39:37.526Z,71.00
2022-09-26T14:42:13.775Z,69.30
2022-09-26T14:44:53.698Z,69.80
2022-09-26T14:47:25.520Z,68.90
2022-09-26T14:49:59.958Z,70.10
2022-09-26T14:52:30.795Z,70.20
2022-09-26T14:55:01.443Z,68.70
2022-09-26T14:57:34.257Z,68.70
2022-09-26T15:00:22.113Z,68.40
2022-09-26T15:02:50.605Z,69.60
2022-09-26T15:05:28.277Z,69.40
2022-09-26T15:07:57.046Z,68.40
2022-09-26T15:10:39.073Z,70.10
2022-09-26T15:13:37.751Z,70.10
2022-09-26T15:16:37.671Z,69.50
2022-09-26T15:19:14.868Z,70.10
2022-09-26T15:21:48.463Z,70.70
2022-09-26T15:24:47.372Z,71.80
2022-09-26T15:27:29.749Z,70.20
2022-09-26T15:30:16.002Z,71.40
2022-09-26T15:32:43.969Z,71.10
2022-09-26T15:35:17.187Z,72.20
2022-09-26T15:37:46.028Z,72.40
2022-09-26T15:40:23.323Z,72.00
2022-09-26T15:43:06.141Z,71.30
2022-09-26T15:45:46.467Z,70.90
2022-09-26T15:48:19.892Z,70.60
2022-09-26T15:50:47.692Z,71.70
2022-09-26T15:53:39.686Z,72.60
2022-09-26T15:56:16.390Z,71.20
2022-09-26T15:58:49.370Z,71.70
2022-09-26T16:01:19.291Z,71.60
2022-09-26T16:04:05.914Z,72.00
2022-09-26T16:06:53.417Z,71.70
2022-09-26T16:09:34.516Z,72.00
2022-09-26T16:12:15.976Z,73.60
2022-09-26T16:15:07.062Z,72.70
2022-09-26T16:17:49.135Z,72.40
2022-09-26T16:20:16.921Z,73.50
2022-09-26T16:22:51.363Z,74.20
2022-09-26T16:25:18.991Z,74.60
2022-09-26T16:27:59.500Z,74.30
2022-09-26T16:30:30.233Z,73.90
2022-09-26T16:33:21.624Z,75.00
2022-09-26T16:35:49.280Z,72.90
2022-09-26T16:38:26.153Z,75.00
2022-09-26T16:40:56.044Z,74.20
2022-09-26T16:43:27.927Z,74.90
2022-09-26T16:46:23.197Z,74.60
2022-09-26T16:48:50.681Z,74.20
2022-09-26T16:51:37.548Z,74.90
2022-09-26T16:54:10.846Z,74.80
2022-09-26T16:56:43.275Z,75.20
2022-09-26T16:59:17.093Z,74.50
2022-09-26T17:01:55.716Z,74.50
2022-09-26T17:04:36.441Z,75.50
2022-09-26T17:07:10.433Z,75.80
2022-09-26T17:09:41.398Z,75.80
2022-09-26T17:12:14.721Z,76.30
2022-09-26T17:14:44.237Z,76.30
2022-09-26T17:17:18.580Z,76.50
2022-09-26T17:19:59.401Z,76.20
2022-09-26T17:22:28.528Z,76.70
2022-09-26T17:25:04.890Z,76.70
2022-09-26T17:27:34.257Z,77.00
2022-09-26T17:30:07.724Z,77.50
2022-09-26T17:32:37.895Z,77.30
2022-09-26T17:35:16.953Z,77.00
2022-09-26T17:37:44.507Z,76.60
2022-09-26T17:40:19.843Z,77.30
2022-09-26T17:42:47.503Z,77.00
2022-09-26T17:45:21.681Z,77.40
2022-09-26T17:47:49.394Z,77.30
2022-09-26T17:50:34.434Z,77.10
2022-09-26T17:53:03.316Z,75.80
2022-09-26T17:55:32.056Z,76.40
2022-09-26T17:57:59.911Z,76.30
2022-09-26T18:00:39.473Z,76.60
2022-09-26T18:03:15.576Z,76.20
2022-09-26T18:05:51.416Z,76.10
2022-09-26T18:08:46.369Z,76.20
2022-09-26T18:11:17.453Z,74.90
2022-09-26T18:13:54.479Z,75.80
2022-09-26T18:16:22.946Z,75.70
2022-09-26T18:18:55.731Z,76.60
2022-09-26T18:21:24.347Z,76.60
2022-09-26T18:24:02.718Z,76.70
2022-09-26T18:26:34.018Z,76.40
2022-09-26T18:29:07.772Z,76.20
2022-09-26T18:31:41.237Z,76.10
2022-09-26T18:34:19.973Z,75.60
2022-09-26T18:36:50.251Z,75.70
2022-09-26T18:39:17.736Z,76.50
2022-09-26T18:41:45.985Z,76.20
2022-09-26T18:44:19.861Z,76.20
2022-09-26T18:46:49.275Z,75.80
2022-09-26T18:49:21.033Z,76.00
2022-09-26T18:51:48.382Z,76.20
2022-09-26T18:54:17.474Z,75.20
2022-09-26T18:57:04.206Z,76.70
2022-09-26T18:59:37.243Z,76.90
2022-09-26T19:02:39.543Z,76.50
2022-09-26T19:05:15.328Z,76.00
2022-09-26T19:07:52.399Z,76.70
2022-09-26T19:10:26.310Z,77.00
2022-09-26T19:13:00.953Z,76.90
2022-09-26T19:15:31.786Z,77.30
2022-09-26T19:17:59.245Z,77.10
2022-09-26T19:20:26.685Z,77.30
2022-09-26T19:22:59.841Z,77.50
2022-09-26T19:25:27.363Z,78.20
2022-09-26T19:28:03.683Z,77.50
2022-09-26T19:30:32.473Z,77.20
2022-09-26T19:33:12.274Z,77.60
2022-09-26T19:35:40.228Z,77.70
2022-09-26T19:38:26.173Z,78.00
2022-09-26T19:40:54.925Z,77.30
2022-09-26T19:43:25.497Z,78.00
2022-09-26T19:45:56.791Z,77.90
2022-09-26T19:48:29.577Z,77.90
2022-09-26T19:50:57.196Z,78.30
2022-09-26T19:53:34.919Z,77.50
2022-09-26T19:56:12.652Z,76.80
2022-09-26T19:58:40.565Z,76.50
2022-09-26T20:01:16.472Z,78.00
2022-09-26T20:03:51.084Z,77.50
2022-09-26T20:06:37.381Z,78.60
2022-09-26T20:09:14.525Z,78.40
2022-09-26T20:11:51.768Z,78.40
2022-09-26T20:14:27.379Z,78.80
2022-09-26T20:17:13.448Z,78.80
2022-09-26T20:19:46.065Z,78.40
2022-09-26T20:22:22.725Z,78.70
2022-09-26T20:25:03.491Z,78.60
2022-09-26T20:27:31.290Z,78.90
2022-09-26T20:30:25.384Z,78.90
2022-09-26T20:32:56.614Z,78.40
2022-09-26T20:35:27.892Z,78.60
2022-09-26T20:38:02.462Z,78.50
2022-09-26T20:40:37.469Z,78.20
2022-09-26T20:43:11.559Z,78.50
2022-09-26T20:45:45.452Z,78.30
2022-09-26T20:48:32.465Z,78.10
2022-09-26T20:51:04.579Z,78.00
2022-09-26T20:53:38.976Z,78.60
2022-09-26T20:56:21.364Z,79.20
2022-09-26T20:58:51.506Z,78.60
2022-09-26T21:01:21.387Z,78.90
2022-09-26T21:03:51.802Z,78.90
2022-09-26T21:06:23.579Z,78.80
2022-09-26T21:08:51.514Z,78.90
2022-09-26T21:11:21.149Z,79.10
2022-09-26T21:13:51.571Z,78.90
2022-09-26T21:16:21.313Z,78.80
2022-09-26T21:18:56.707Z,79.10
2022-09-26T21:21:30.133Z,78.60
2022-09-26T21:24:00.826Z,79.40
2022-09-26T21:26:31.396Z,79.00
2022-09-26T21:28:59.465Z,79.70
2022-09-26T21:31:35.625Z,80.60
2022-09-26T21:34:04.743Z,80.90
2022-09-26T21:36:37.523Z,82.10
2022-09-26T21:39:05.810Z,83.50
2022-09-26T21:41:33.550Z,83.60
2022-09-26T21:44:06.228Z,84.20
2022-09-26T21:46:33.776Z,84.60
2022-09-26T21:49:03.762Z,85.30
2022-09-26T21:51:31.933Z,85.60
2022-09-26T21:54:38.349Z,85.90
2022-09-26T21:57:19.932Z,85.10
2022-09-26T21:59:50.137Z,86.80
2022-09-26T22:02:17.779Z,86.30
2022-09-26T22:04:49.834Z,86.60
2022-09-26T22:07:17.267Z,86.40
2022-09-26T22:09:44.796Z,86.40
2022-09-26T22:12:12.294Z,86.60
2022-09-26T22:14:53.211Z,86.90
2022-09-26T22:17:20.853Z,87.20
2022-09-26T22:19:53.436Z,87.40
2022-09-26T22:22:21.662Z,87.90
2022-09-26T22:24:52.983Z,87.90
2022-09-26T22:27:21.337Z,88.10
2022-09-26T22:29:48.771Z,88.30
2022-09-26T22:32:16.118Z,88.50
2022-09-26T22:34:46.126Z,88.30
2022-09-26T22:37:16.132Z,87.70
2022-09-26T22:39:46.105Z,87.60
2022-09-26T22:42:19.470Z,87.30
2022-09-26T22:44:47.064Z,87.00
2022-09-26T22:47:14.904Z,87.00
2022-09-26T22:49:42.414Z,87.20
2022-09-26T22:52:09.993Z,87.40
2022-09-26T22:54:37.505Z,87.70
2022-09-26T22:57:05.074Z,87.40
2022-09-26T22:59:40.225Z,87.30
2022-09-26T23:02:07.656Z,87.20
2022-09-26T23:04:50.692Z,87.40
2022-09-26T23:07:23.057Z,87.60
2022-09-26T23:09:50.526Z,87.40
2022-09-26T23:12:19.102Z,87.30
2022-09-26T23:14:54.171Z,87.30
2022-09-26T23:17:21.577Z,87.50
2022-09-26T23:19:51.784Z,87.80
2022-09-26T23:22:19.288Z,87.90
2022-09-26T23:24:46.676Z,87.90
2022-09-26T23:27:14.166Z,88.00
2022-09-26T23:29:41.863Z,88.10
2022-09-26T23:32:09.240Z,88.40
2022-09-26T23:34:36.657Z,88.40
2022-09-26T23:37:04.629Z,88.30
2022-09-26T23:39:32.006Z,88.20
2022-09-26T23:42:00.036Z,88.30
2022-09-26T23:44:27.693Z,88.50
2022-09-26T23:46:55.098Z,88.50
2022-09-26T23:49:27.924Z,88.50
2022-09-26T23:51:55.391Z,88.40
2022-09-26T23:54:32.258Z,88.60
2022-09-26T23:57:00.534Z,88.60
2022-09-26T23:59:34.447Z,88.70
